FACT/CPT METAR and TAF weather

Enter ICAO airport designator
Station Type Date Time Source
FACT METAR 2021/09/27 07:00 UTC NOAA

FACT 270700Z 21011KT 170V230 9999 SCT025 BKN035 16/12 Q1015 NOSIG


Station Type Date Time Source
FACT Decoded METAR 2021/09/27 07:00 UTC NOAA

Cape Town, Cape Town International Airport, South Africa (FACT) 33-59S 018-36E 0M
Sep 27, 2021 - 03:00 AM EDT / 2021.09.27 0700 UTC
Wind: from the SSW (210 degrees) at 13 MPH (11 KT) (direction variable):0
Visibility: greater than 7 mile(s):0
Sky conditions: mostly cloudy
Temperature: 60 F (16 C)
Dew Point: 53 F (12 C)
Relative Humidity: 77%
Pressure (altimeter): 29.97 in. Hg (1015 hPa)
ob: FACT 270700Z 21011KT 170V230 9999 SCT025 BKN035 16/12 Q1015 NOSIG
cycle: 7

Station Type Date Time Source
FACT TAF 2021/09/27 06:10 UTC NOAA

TAF FACT 270400Z 2706/2812 VRB03KT 9999 BKN040 TX19/2712Z TN09/2805Z
BECMG 2706/2708 23012KT
FM271500 19008KT 9999 FEW040

Example: see airport list